Time;durP1;ratioP1;P1;durP2;ratioP2;P2;SDS_P1;SDS_P2;PMS_P1;PMS_P2;Temp;Humidity;BMP_temperature;BMP_pressure;BME280_temperature;BME280_humidity;BME280_pressure;Samples;Min_cycle;Max_cycle;Signal;HPM_P1;HPM_P2
2022/06/09 00:00:16;;;;;;;5.07;2.55;;;;;;;14.59;85.92;100202.50;4955293;28;20966;-70
2022/06/09 00:02:42;;;;;;;5.60;2.30;;;;;;;14.52;86.79;100206.03;4976531;28;20271;-70
2022/06/09 00:05:07;;;;;;;4.35;2.13;;;;;;;14.55;87.52;100211.00;4951709;28;20041;-70
2022/06/09 00:07:33;;;;;;;5.68;2.00;;;;;;;14.63;84.77;100216.31;4970228;28;20061;-69
2022/06/09 00:10:08;;;;;;;6.03;1.95;;;;;;;14.59;85.72;100222.94;4977559;28;20006;-71
2022/06/09 00:12:33;;;;;;;5.28;1.95;;;;;;;14.50;86.12;100219.50;4955183;28;20050;-71
2022/06/09 00:14:59;;;;;;;5.78;2.17;;;;;;;14.50;86.03;100221.34;4975479;28;20042;-69
2022/06/09 00:17:25;;;;;;;4.57;2.15;;;;;;;14.40;85.86;100217.06;4966810;28;20125;-69
2022/06/09 00:19:50;;;;;;;6.18;2.00;;;;;;;14.38;87.06;100215.59;4974336;28;20759;-70
2022/06/09 00:22:16;;;;;;;7.32;1.92;;;;;;;14.31;85.33;100218.09;4952569;28;21056;-70
2022/06/09 00:24:41;;;;;;;3.55;1.58;;;;;;;14.39;84.89;100226.06;4968428;28;20030;-70
2022/06/09 00:27:06;;;;;;;7.78;1.90;;;;;;;14.35;86.33;100219.41;4972829;28;20074;-69
2022/06/09 00:29:32;;;;;;;5.43;1.95;;;;;;;14.35;86.83;100221.25;4971952;28;20071;-70
2022/06/09 00:31:57;;;;;;;7.78;1.63;;;;;;;14.30;87.89;100221.78;4965290;28;20061;-70
2022/06/09 00:34:23;;;;;;;7.40;1.92;;;;;;;14.26;86.84;100231.94;4967095;28;20896;-70
2022/06/09 00:36:48;;;;;;;5.78;1.88;;;;;;;14.18;85.27;100225.84;4968510;28;20019;-70
2022/06/09 00:39:13;;;;;;;7.53;1.90;;;;;;;14.22;85.17;100227.97;4966017;28;20049;-70
2022/06/09 00:41:40;;;;;;;5.50;1.75;;;;;;;14.18;86.37;100228.50;4968895;28;20087;-71
2022/06/09 00:44:23;;;;;;;4.18;1.60;;;;;;;14.08;85.71;100240.16;4949125;28;20138;-70
2022/06/09 00:47:01;;;;;;;6.65;1.80;;;;;;;14.20;84.97;100239.78;4953287;28;20133;-70
2022/06/09 00:50:02;;;;;;;3.42;1.58;;;;;;;14.19;85.23;100243.47;4937636;28;20880;-70
2022/06/09 00:52:29;;;;;;;5.47;1.83;;;;;;;14.15;85.47;100255.47;4963694;28;20188;-70
2022/06/09 00:54:59;;;;;;;5.35;1.75;;;;;;;14.23;84.05;100260.75;4937317;28;20542;-72
2022/06/09 00:57:53;;;;;;;9.68;1.65;;;;;;;14.20;84.87;100250.44;4920721;28;20567;-70
2022/06/09 01:00:22;;;;;;;5.30;1.63;;;;;;;14.27;84.86;100256.75;4935840;28;20033;-70
2022/06/09 01:02:47;;;;;;;3.75;1.80;;;;;;;14.38;85.04;100259.03;4935898;28;20013;-70
2022/06/09 01:05:14;;;;;;;6.70;1.90;;;;;;;14.29;86.17;100252.06;4951250;28;20015;-71
2022/06/09 01:07:44;;;;;;;7.55;1.98;;;;;;;14.21;85.73;100268.91;4918901;28;20167;-70
2022/06/09 01:10:10;;;;;;;9.05;1.90;;;;;;;14.23;85.17;100272.22;4933993;28;20044;-71
2022/06/09 01:12:37;;;;;;;7.95;1.77;;;;;;;14.31;86.49;100270.53;4935712;28;20052;-71
2022/06/09 01:15:08;;;;;;;7.05;1.70;;;;;;;14.29;87.40;100276.00;4974458;28;20019;-70
2022/06/09 01:17:56;;;;;;;8.90;2.00;;;;;;;14.18;85.77;100279.88;4974237;28;20915;-70
2022/06/09 01:20:25;;;;;;;5.00;1.67;;;;;;;14.22;86.12;100280.38;4931245;28;20049;-71
2022/06/09 01:23:05;;;;;;;4.32;1.60;;;;;;;14.30;87.12;100287.47;4970008;28;20026;-71
2022/06/09 01:26:05;;;;;;;6.15;2.00;;;;;;;14.28;84.30;100290.31;4951043;28;20018;-70
2022/06/09 01:28:51;;;;;;;8.02;1.90;;;;;;;14.35;83.70;100295.78;4969879;28;20098;-71
2022/06/09 01:31:38;;;;;;;7.60;1.75;;;;;;;14.36;83.51;100284.97;4967984;28;20029;-71
2022/06/09 01:34:25;;;;;;;9.77;2.00;;;;;;;14.31;83.47;100287.31;4971574;28;20147;-70
2022/06/09 01:37:06;;;;;;;6.13;2.00;;;;;;;14.28;82.62;100279.66;4964807;28;20203;-71
2022/06/09 01:39:55;;;;;;;10.25;2.47;;;;;;;14.36;82.14;100284.97;4962208;28;20046;-70
2022/06/09 01:42:23;;;;;;;5.70;1.90;;;;;;;14.37;82.72;100293.81;4952086;28;20014;-70
2022/06/09 01:44:49;;;;;;;8.40;1.90;;;;;;;14.37;82.19;100289.28;4970211;28;20026;-70
2022/06/09 01:47:15;;;;;;;6.15;1.83;;;;;;;14.32;81.89;100290.81;4970178;28;20169;-71
2022/06/09 01:49:40;;;;;;;9.75;2.22;;;;;;;14.24;82.29;100289.00;4932658;28;20186;-70
2022/06/09 01:52:06;;;;;;;8.45;2.70;;;;;;;14.19;82.35;100286.88;4915723;28;20010;-71
2022/06/09 01:54:35;;;;;;;8.85;2.33;;;;;;;14.26;81.68;100285.16;4931495;28;20096;-69
2022/06/09 01:57:09;;;;;;;5.35;2.00;;;;;;;14.29;82.96;100291.16;4930632;28;20026;-70
2022/06/09 01:59:36;;;;;;;9.52;1.95;;;;;;;14.29;83.61;100294.66;4950992;28;20127;-69
2022/06/09 02:02:09;;;;;;;9.82;2.40;;;;;;;14.25;83.68;100290.66;4988465;28;20850;-69
2022/06/09 02:04:38;;;;;;;9.80;3.10;;;;;;;14.31;81.76;100300.63;4988831;28;20933;-69
2022/06/09 02:07:05;;;;;;;11.38;2.80;;;;;;;14.32;81.55;100301.47;4955656;28;20845;-70
2022/06/09 02:09:30;;;;;;;10.05;2.60;;;;;;;14.36;81.20;100303.59;4953396;28;20095;-71
2022/06/09 02:11:56;;;;;;;8.40;2.55;;;;;;;14.34;81.95;100297.63;4953067;28;20025;-69
2022/06/09 02:14:25;;;;;;;12.43;2.65;;;;;;;14.31;83.41;100297.94;4956548;28;20032;-70
2022/06/09 02:16:51;;;;;;;8.18;2.85;;;;;;;14.25;83.11;100298.66;4955657;28;20025;-69
2022/06/09 02:19:16;;;;;;;8.45;2.90;;;;;;;14.34;82.76;100305.63;5001870;28;20052;-69
2022/06/09 02:21:41;;;;;;;5.63;2.40;;;;;;;14.34;81.54;100308.28;5010430;28;20852;-70
2022/06/09 02:24:07;;;;;;;8.02;2.50;;;;;;;14.37;82.37;100313.25;4962429;28;20093;-71
2022/06/09 02:26:33;;;;;;;10.13;2.63;;;;;;;14.35;82.41;100307.25;4930782;28;20122;-70
2022/06/09 02:28:59;;;;;;;6.72;2.60;;;;;;;14.36;83.63;100310.75;4965902;28;20124;-69
2022/06/09 02:31:25;;;;;;;6.93;2.45;;;;;;;14.34;80.89;100316.25;4968492;28;20021;-70
2022/06/09 02:33:50;;;;;;;9.30;2.80;;;;;;;14.31;81.39;100321.09;4969566;28;20180;-70
2022/06/09 02:36:16;;;;;;;8.25;2.40;;;;;;;14.25;82.21;100317.28;4950210;28;21150;-70
2022/06/09 02:38:42;;;;;;;13.40;3.00;;;;;;;14.19;83.04;100323.31;4957190;28;19994;-70
2022/06/09 02:41:07;;;;;;;7.80;2.50;;;;;;;14.17;82.06;100314.63;4959071;28;20037;-70
2022/06/09 02:43:33;;;;;;;10.88;2.90;;;;;;;14.19;82.08;100318.78;4952288;28;20130;-69
2022/06/09 02:45:59;;;;;;;6.47;2.67;;;;;;;14.27;82.29;100323.28;4989275;28;20722;-70
2022/06/09 02:48:25;;;;;;;7.95;3.00;;;;;;;14.20;81.94;100315.13;4947580;28;20026;-70
2022/06/09 02:50:52;;;;;;;10.85;3.30;;;;;;;14.16;81.88;100323.66;4930709;28;20015;-70
2022/06/09 02:53:18;;;;;;;11.75;3.00;;;;;;;14.24;82.08;100320.94;4932879;28;20777;-68
2022/06/09 02:55:43;;;;;;;8.48;3.30;;;;;;;14.18;80.96;100318.97;4948045;28;20011;-71
2022/06/09 02:58:09;;;;;;;7.43;2.88;;;;;;;14.19;81.67;100323.31;4948732;28;20086;-71
2022/06/09 03:00:35;;;;;;;9.45;2.92;;;;;;;14.20;82.48;100327.59;4938216;28;20069;-71
2022/06/09 03:03:03;;;;;;;7.75;2.83;;;;;;;14.15;82.25;100327.31;4970784;28;20029;-69
2022/06/09 03:05:30;;;;;;;10.85;3.22;;;;;;;14.18;82.70;100325.13;4927082;28;20094;-71
2022/06/09 03:07:55;;;;;;;9.73;2.92;;;;;;;14.15;81.89;100329.97;4943672;28;20013;-69
2022/06/09 03:10:21;;;;;;;10.52;3.13;;;;;;;14.03;82.67;100325.00;4992012;28;20558;-70
2022/06/09 03:12:46;;;;;;;12.23;3.45;;;;;;;14.04;82.82;100325.81;4983199;28;20801;-70
2022/06/09 03:15:13;;;;;;;11.38;2.90;;;;;;;14.11;82.11;100332.13;4953513;28;20075;-70
2022/06/09 03:17:38;;;;;;;7.55;3.10;;;;;;;14.16;81.73;100332.44;4953272;28;20049;-70
2022/06/09 03:20:05;;;;;;;7.70;2.97;;;;;;;14.15;81.48;100332.63;4990065;28;20045;-69
2022/06/09 03:22:30;;;;;;;12.27;3.38;;;;;;;14.00;82.18;100336.00;4954855;28;20459;-70
2022/06/09 03:24:56;;;;;;;11.73;3.20;;;;;;;13.99;82.65;100334.31;4952967;28;20974;-70
2022/06/09 03:27:21;;;;;;;11.40;3.50;;;;;;;14.05;82.78;100343.44;4950733;28;20130;-70
2022/06/09 03:29:47;;;;;;;9.90;3.45;;;;;;;14.02;83.09;100343.78;4970460;28;20029;-70
2022/06/09 03:32:12;;;;;;;8.77;3.08;;;;;;;13.99;82.65;100341.44;4986727;28;20336;-70
2022/06/09 03:34:38;;;;;;;9.52;3.00;;;;;;;14.02;83.36;100349.13;4986997;28;20261;-71
2022/06/09 03:37:03;;;;;;;7.82;3.17;;;;;;;14.04;83.09;100353.25;4967908;28;21036;-71
2022/06/09 03:39:29;;;;;;;9.38;3.10;;;;;;;14.04;83.38;100357.75;4947092;28;20118;-71
2022/06/09 03:41:54;;;;;;;11.85;3.80;;;;;;;14.02;83.95;100363.25;4964233;28;20045;-71
2022/06/09 03:44:19;;;;;;;11.40;3.40;;;;;;;14.07;83.69;100362.72;4971477;28;20040;-70
2022/06/09 03:46:45;;;;;;;11.50;3.45;;;;;;;14.08;83.90;100365.22;4993496;28;20079;-70
2022/06/09 03:49:11;;;;;;;14.70;3.83;;;;;;;14.09;83.30;100376.69;4971825;28;20963;-72
2022/06/09 03:51:36;;;;;;;12.50;3.67;;;;;;;14.07;83.39;100370.69;4935753;28;20904;-71
2022/06/09 03:54:02;;;;;;;10.63;2.78;;;;;;;14.13;83.31;100378.03;4950427;28;20018;-71
2022/06/09 03:56:27;;;;;;;12.27;3.53;;;;;;;14.19;82.52;100384.50;4954244;28;20018;-70
2022/06/09 03:58:52;;;;;;;12.13;3.78;;;;;;;14.02;84.10;100384.53;4971262;28;20185;-70
2022/06/09 04:01:18;;;;;;;10.30;2.83;;;;;;;14.07;84.46;100392.84;4990653;28;20044;-69
2022/06/09 04:03:44;;;;;;;11.13;3.53;;;;;;;14.05;83.99;100392.16;4975275;28;21011;-70
2022/06/09 04:06:15;;;;;;;13.85;3.65;;;;;;;14.06;84.24;100388.50;4958307;28;20964;-70
2022/06/09 04:08:40;;;;;;;11.95;3.88;;;;;;;14.15;84.68;100399.97;4943953;28;20025;-71
2022/06/09 04:11:06;;;;;;;10.88;3.95;;;;;;;14.02;84.54;100405.81;4955318;28;20057;-71
2022/06/09 04:13:31;;;;;;;10.07;3.70;;;;;;;14.08;84.55;100406.97;4957652;28;20036;-68
2022/06/09 04:15:57;;;;;;;8.60;3.45;;;;;;;14.19;83.97;100408.47;4992851;28;20257;-69
2022/06/09 04:18:22;;;;;;;14.45;3.70;;;;;;;14.18;84.02;100412.94;4974706;28;20401;-69
2022/06/09 04:20:48;;;;;;;9.38;3.58;;;;;;;14.11;84.19;100411.13;4973367;28;20024;-70
2022/06/09 04:23:13;;;;;;;11.80;4.22;;;;;;;14.06;84.38;100408.97;4956120;28;20167;-70
2022/06/09 04:25:39;;;;;;;12.23;3.63;;;;;;;14.06;84.27;100414.28;4971681;28;20013;-70
2022/06/09 04:28:05;;;;;;;11.43;3.90;;;;;;;14.20;84.80;100424.25;4971727;28;20253;-69
2022/06/09 04:30:30;;;;;;;14.43;4.22;;;;;;;14.26;84.72;100425.41;4955685;28;20371;-70
2022/06/09 04:32:57;;;;;;;10.52;3.70;;;;;;;14.21;83.35;100428.59;4941864;28;20006;-71
2022/06/09 04:35:23;;;;;;;9.75;3.08;;;;;;;14.20;84.49;100431.38;4956600;28;20121;-68
2022/06/09 04:38:00;;;;;;;12.65;3.88;;;;;;;14.13;83.68;100433.06;4991761;28;20025;-69
2022/06/09 04:40:27;;;;;;;11.68;4.05;;;;;;;14.11;83.78;100429.75;4968707;28;20042;-72
2022/06/09 04:42:53;;;;;;;12.52;3.72;;;;;;;14.14;83.76;100437.38;4952150;28;20122;-71
2022/06/09 04:45:19;;;;;;;12.35;4.03;;;;;;;14.23;83.18;100442.53;4963529;28;20213;-70
2022/06/09 04:47:45;;;;;;;13.25;3.70;;;;;;;14.27;83.18;100437.72;4940181;28;20017;-68
2022/06/09 04:50:10;;;;;;;10.85;3.53;;;;;;;14.31;83.17;100439.03;4972823;28;20034;-70
2022/06/09 04:52:36;;;;;;;11.10;3.60;;;;;;;14.30;83.09;100437.38;4944196;28;20003;-70
2022/06/09 04:55:01;;;;;;;10.60;3.58;;;;;;;14.25;83.31;100437.88;4956458;28;20371;-71
2022/06/09 04:57:27;;;;;;;9.10;3.55;;;;;;;14.32;83.00;100440.69;4974106;28;20498;-71
2022/06/09 04:59:53;;;;;;;11.30;3.70;;;;;;;14.39;82.79;100441.66;4974330;28;20152;-70
2022/06/09 05:02:19;;;;;;;12.57;3.85;;;;;;;14.46;83.16;100438.34;4974147;28;20438;-71
2022/06/09 05:04:44;;;;;;;12.52;4.07;;;;;;;14.55;82.85;100445.31;4944460;28;20333;-72
2022/06/09 05:07:10;;;;;;;12.43;3.92;;;;;;;14.56;81.99;100445.13;4941416;28;20592;-72
2022/06/09 05:09:35;;;;;;;12.48;4.25;;;;;;;14.52;82.15;100453.63;4977759;28;20658;-72
2022/06/09 05:12:01;;;;;;;11.48;4.03;;;;;;;14.60;81.79;100459.78;4976319;28;20014;-71
2022/06/09 05:14:26;;;;;;;15.15;4.60;;;;;;;14.59;82.02;100466.13;4949746;28;20174;-71
2022/06/09 05:16:52;;;;;;;10.48;3.90;;;;;;;14.68;81.93;100469.63;4942297;28;20963;-70
2022/06/09 05:19:18;;;;;;;13.73;4.57;;;;;;;14.65;82.08;100463.78;4978645;28;20042;-72
2022/06/09 05:21:43;;;;;;;14.77;4.75;;;;;;;14.57;81.58;100470.75;4958777;28;20057;-72
2022/06/09 05:24:11;;;;;;;15.85;5.05;;;;;;;14.49;81.79;100476.09;4972617;28;20026;-71
2022/06/09 05:26:37;;;;;;;13.50;4.53;;;;;;;14.38;82.43;100469.31;4940092;28;20022;-72
2022/06/09 05:29:03;;;;;;;12.68;4.47;;;;;;;14.45;82.05;100471.28;4959138;28;20944;-71
2022/06/09 05:31:28;;;;;;;12.68;4.43;;;;;;;14.57;81.53;100478.75;4939570;28;20962;-70
2022/06/09 05:33:54;;;;;;;11.05;4.57;;;;;;;14.47;82.92;100488.75;4977269;28;20015;-71
2022/06/09 05:36:20;;;;;;;15.38;4.75;;;;;;;14.45;82.42;100476.63;4941522;28;20022;-72
2022/06/09 05:46:58;;;;;;;15.53;4.87;;;;;;;14.49;83.50;100491.25;4977152;28;19969;-71
2022/06/09 05:49:24;;;;;;;11.02;4.88;;;;;;;14.48;84.16;100498.41;4955321;28;20014;-66
2022/06/09 05:51:50;;;;;;;14.65;5.05;;;;;;;14.45;82.80;100493.41;4974350;28;20019;-70
2022/06/09 05:54:16;;;;;;;11.43;4.53;;;;;;;14.51;82.71;100497.22;4960785;28;20907;-70
2022/06/09 05:56:41;;;;;;;10.73;4.55;;;;;;;14.73;82.05;100503.72;4957665;28;20022;-69
2022/06/09 05:59:07;;;;;;;15.35;5.07;;;;;;;14.72;82.35;100508.22;4973411;28;20068;-71
2022/06/09 06:01:32;;;;;;;13.15;4.68;;;;;;;14.71;82.28;100508.41;4939178;28;20870;-69
2022/06/09 06:03:58;;;;;;;14.13;4.25;;;;;;;14.72;82.03;100504.72;4973603;28;20026;-71
2022/06/09 06:06:36;;;;;;;19.25;5.40;;;;;;;14.77;80.95;100518.38;4958213;28;20494;-71
2022/06/09 06:09:09;;;;;;;12.93;4.85;;;;;;;14.72;81.36;100521.53;4960062;28;20032;-71
2022/06/09 06:11:35;;;;;;;10.63;4.43;;;;;;;14.69;82.12;100527.22;4976482;28;20876;-70
2022/06/09 06:14:00;;;;;;;13.13;5.25;;;;;;;14.66;82.61;100529.38;4973541;28;20067;-71
2022/06/09 06:16:26;;;;;;;14.13;4.65;;;;;;;14.66;82.04;100540.84;4976847;28;21064;-71
2022/06/09 06:18:51;;;;;;;15.52;5.00;;;;;;;14.80;81.31;100541.19;4943661;28;20019;-71
2022/06/09 06:21:17;;;;;;;14.00;4.72;;;;;;;14.65;81.41;100541.88;4974901;28;20521;-69
2022/06/09 06:23:42;;;;;;;13.65;4.43;;;;;;;14.67;81.74;100539.84;4958536;28;20015;-70
2022/06/09 06:26:08;;;;;;;14.02;5.05;;;;;;;14.71;81.55;100543.84;4978129;28;20064;-71
2022/06/09 06:28:34;;;;;;;13.73;4.68;;;;;;;14.77;81.17;100539.69;4961061;28;20254;-71
2022/06/09 06:30:59;;;;;;;16.65;5.22;;;;;;;14.72;81.40;100550.00;4951807;28;20019;-71
2022/06/09 06:33:25;;;;;;;14.32;4.93;;;;;;;14.82;81.11;100552.47;4958770;28;20127;-70
2022/06/09 06:35:50;;;;;;;15.10;4.68;;;;;;;14.85;81.05;100552.97;4957841;28;20995;-69
2022/06/09 06:38:16;;;;;;;14.00;5.05;;;;;;;14.85;80.96;100554.78;4972870;28;20118;-70
2022/06/09 06:40:41;;;;;;;17.13;5.47;;;;;;;14.89;81.54;100559.63;4955137;28;20429;-70
2022/06/09 06:43:07;;;;;;;12.00;5.15;;;;;;;14.85;80.95;100563.63;4970474;28;20009;-71
2022/06/09 06:45:32;;;;;;;16.88;5.50;;;;;;;14.88;80.67;100567.81;4943368;28;20074;-70
2022/06/09 06:47:58;;;;;;;11.40;5.15;;;;;;;14.84;81.33;100566.47;4966871;28;20018;-72
2022/06/09 06:50:23;;;;;;;12.75;5.50;;;;;;;14.76;80.93;100572.63;4956420;28;20784;-71
2022/06/09 06:52:49;;;;;;;12.20;5.18;;;;;;;14.73;80.69;100580.97;4953975;28;20038;-70
2022/06/09 06:55:15;;;;;;;10.63;5.68;;;;;;;14.73;80.39;100575.63;4958699;28;20007;-72
2022/06/09 06:57:41;;;;;;;11.63;5.40;;;;;;;14.87;80.29;100592.78;4955584;28;20138;-71
2022/06/09 07:00:07;;;;;;;14.05;5.50;;;;;;;14.88;80.96;100589.94;4960952;28;20067;-72
2022/06/09 07:02:33;;;;;;;10.88;5.05;;;;;;;14.89;80.79;100596.94;4972575;28;20122;-71
2022/06/09 07:04:58;;;;;;;12.32;5.20;;;;;;;15.02;80.34;100595.59;4946152;28;20033;-70
2022/06/09 07:07:25;;;;;;;14.98;5.55;;;;;;;15.05;79.78;100608.56;4971512;28;20030;-73
2022/06/09 07:09:50;;;;;;;11.88;5.70;;;;;;;15.01;79.99;100604.56;4943302;28;20166;-70
2022/06/09 07:12:16;;;;;;;12.20;5.50;;;;;;;15.00;79.68;100608.25;4970518;28;20388;-71
2022/06/09 07:14:41;;;;;;;13.63;5.63;;;;;;;14.94;79.51;100610.56;4977679;28;20030;-71
2022/06/09 07:17:07;;;;;;;11.57;5.43;;;;;;;15.01;79.54;100613.41;4947741;28;20168;-70
2022/06/09 07:19:32;;;;;;;10.23;5.18;;;;;;;15.07;79.46;100620.72;4975304;28;20366;-71
2022/06/09 07:21:58;;;;;;;11.98;5.07;;;;;;;15.07;79.28;100625.22;4943704;28;20030;-69
2022/06/09 07:24:24;;;;;;;10.80;5.43;;;;;;;15.04;79.47;100630.88;4976495;28;20029;-71
2022/06/09 07:26:49;;;;;;;12.63;5.68;;;;;;;14.89;79.38;100631.56;4964394;28;20553;-70
2022/06/09 07:29:16;;;;;;;13.85;5.47;;;;;;;14.91;80.08;100632.22;4977142;28;20026;-70
2022/06/09 07:31:41;;;;;;;9.52;5.50;;;;;;;15.08;79.22;100635.69;4957035;28;20002;-71
2022/06/09 07:34:07;;;;;;;15.10;5.35;;;;;;;15.00;79.54;100638.38;4960988;28;20495;-70
2022/06/09 07:36:32;;;;;;;15.10;5.47;;;;;;;15.09;80.68;100623.22;4974133;28;20363;-71
2022/06/09 07:38:58;;;;;;;13.75;5.88;;;;;;;15.14;79.32;100636.03;4946161;28;20492;-71
2022/06/09 07:41:23;;;;;;;14.00;5.50;;;;;;;15.21;79.09;100640.50;4968028;28;20029;-71
2022/06/09 07:43:49;;;;;;;13.98;5.50;;;;;;;15.34;77.97;100642.66;4981779;28;20462;-71
2022/06/09 07:46:15;;;;;;;10.68;5.47;;;;;;;15.37;78.43;100646.81;4943275;28;20030;-71
2022/06/09 07:48:41;;;;;;;14.55;5.72;;;;;;;15.42;78.27;100642.63;4974733;28;20053;-71
2022/06/09 07:51:06;;;;;;;10.52;5.35;;;;;;;15.36;77.95;100658.50;4976813;28;20019;-71
2022/06/09 07:53:31;;;;;;;12.13;5.57;;;;;;;15.30;77.80;100652.00;4975244;28;20030;-71
2022/06/09 07:55:57;;;;;;;13.95;6.15;;;;;;;15.21;78.48;100664.50;4976007;28;20021;-71
2022/06/09 07:58:22;;;;;;;11.02;5.63;;;;;;;15.24;78.57;100660.66;4978981;28;20014;-70
2022/06/09 08:00:48;;;;;;;13.48;5.97;;;;;;;15.24;78.87;100663.31;4976769;28;20018;-70
2022/06/09 08:03:19;;;;;;;12.88;6.00;;;;;;;15.31;78.47;100666.97;4978303;28;20118;-69
2022/06/09 08:05:44;;;;;;;10.32;5.50;;;;;;;15.35;78.52;100670.16;4985720;28;20466;-71
2022/06/09 08:08:10;;;;;;;11.32;6.03;;;;;;;15.50;77.74;100667.59;4961083;28;20539;-70
2022/06/09 08:10:36;;;;;;;13.27;5.75;;;;;;;15.51;78.19;100671.94;4977106;28;20223;-71
2022/06/09 08:13:02;;;;;;;11.23;5.70;;;;;;;15.56;78.69;100672.25;4944728;28;20018;-71
2022/06/09 08:15:28;;;;;;;11.70;5.70;;;;;;;15.44;78.02;100677.97;4970016;28;20045;-71
2022/06/09 08:17:55;;;;;;;13.32;5.65;;;;;;;15.45;77.35;100681.44;4980177;28;20922;-70
2022/06/09 08:20:20;;;;;;;16.73;6.03;;;;;;;15.33;77.80;100688.97;4960374;28;20031;-71
2022/06/09 08:22:46;;;;;;;13.07;5.88;;;;;;;15.42;78.35;100690.63;4957442;28;20032;-73
2022/06/09 08:25:13;;;;;;;9.32;5.57;;;;;;;15.56;77.72;100690.94;4966396;28;20397;-72
2022/06/09 08:27:39;;;;;;;13.50;5.82;;;;;;;15.62;76.52;100703.56;4981065;28;20002;-71
2022/06/09 08:30:05;;;;;;;13.95;6.32;;;;;;;15.42;77.27;100701.28;4995862;28;20033;-71
2022/06/09 08:32:30;;;;;;;15.02;6.18;;;;;;;15.38;77.88;100707.13;4987121;28;20022;-71
2022/06/09 08:34:56;;;;;;;14.95;6.28;;;;;;;15.38;77.67;100707.13;4958361;28;20021;-70
2022/06/09 08:37:22;;;;;;;9.30;5.68;;;;;;;15.37;78.07;100711.66;4977815;28;20231;-71
2022/06/09 08:39:47;;;;;;;13.18;6.13;;;;;;;15.39;78.13;100711.47;4955340;28;20793;-71
2022/06/09 08:42:12;;;;;;;13.00;6.40;;;;;;;15.36;77.72;100715.31;4939958;28;20038;-70
2022/06/09 08:44:41;;;;;;;12.90;5.90;;;;;;;15.54;77.06;100722.25;4978357;28;20499;-71
2022/06/09 08:47:13;;;;;;;11.73;6.10;;;;;;;15.53;77.28;100720.63;4978842;28;21134;-71
2022/06/09 08:49:59;;;;;;;11.95;6.30;;;;;;;15.50;76.79;100721.78;4925896;28;20045;-71
2022/06/09 08:52:41;;;;;;;12.80;6.63;;;;;;;15.44;77.64;100722.44;4959387;28;20547;-69
2022/06/09 08:55:36;;;;;;;13.10;6.28;;;;;;;15.44;77.02;100720.63;4959372;28;20054;-69
2022/06/09 08:58:12;;;;;;;12.68;6.28;;;;;;;15.55;77.69;100718.59;4955164;28;20434;-70
2022/06/09 09:00:41;;;;;;;9.38;5.97;;;;;;;15.78;76.30;100724.88;4959936;28;20128;-71
2022/06/09 09:03:18;;;;;;;9.50;5.75;;;;;;;16.04;75.57;100726.47;4926963;28;20030;-70
2022/06/09 09:06:23;;;;;;;14.82;6.72;;;;;;;16.10;74.61;100733.81;4962049;28;20100;-70
2022/06/09 09:08:49;;;;;;;13.07;6.30;;;;;;;16.09;74.26;100729.47;4959313;28;20017;-71
2022/06/09 09:11:32;;;;;;;9.85;5.55;;;;;;;16.13;74.24;100737.94;4941601;28;20030;-71
2022/06/09 09:14:05;;;;;;;9.07;5.40;;;;;;;16.29;73.99;100737.06;4975978;28;20081;-70
2022/06/09 09:16:38;;;;;;;11.70;6.00;;;;;;;16.47;74.71;100742.97;4939122;28;20015;-71
2022/06/09 09:19:31;;;;;;;10.18;5.78;;;;;;;16.75;71.86;100739.81;4937513;28;20125;-70
2022/06/09 09:22:11;;;;;;;14.85;5.72;;;;;;;16.70;71.59;100744.00;4960309;28;20365;-71
2022/06/09 09:24:51;;;;;;;9.93;5.80;;;;;;;17.14;70.07;100738.03;4960502;28;20782;-70
2022/06/09 09:27:42;;;;;;;11.57;5.55;;;;;;;17.17;69.42;100746.53;4975652;28;20022;-69
2022/06/09 09:30:23;;;;;;;14.57;5.30;;;;;;;17.44;69.17;100762.16;4960580;28;20774;-69
2022/06/09 09:32:54;;;;;;;11.23;5.30;;;;;;;17.61;68.37;100752.97;4933651;28;20087;-71
2022/06/09 09:35:26;;;;;;;10.00;5.38;;;;;;;18.01;68.02;100758.09;4941839;28;20048;-70
2022/06/09 09:37:53;;;;;;;9.18;5.20;;;;;;;18.18;65.99;100759.53;4976483;28;20018;-71
2022/06/09 09:40:44;;;;;;;7.95;4.57;;;;;;;18.43;65.44;100767.28;4970618;28;20186;-71
2022/06/09 09:43:12;;;;;;;9.40;4.80;;;;;;;18.31;64.61;100764.22;4948211;28;20213;-71
2022/06/09 09:45:39;;;;;;;8.23;4.30;;;;;;;18.48;64.24;100759.47;4957310;28;20853;-71
2022/06/09 09:48:07;;;;;;;7.32;4.60;;;;;;;18.76;62.94;100757.94;4960452;28;20425;-71
2022/06/09 09:50:52;;;;;;;8.30;4.40;;;;;;;19.15;63.49;100760.19;4959772;28;20212;-71
2022/06/09 09:53:17;;;;;;;6.88;4.22;;;;;;;19.26;62.58;100763.38;4974134;28;20794;-73
2022/06/09 09:56:18;;;;;;;9.48;4.35;;;;;;;19.17;61.13;100768.88;4975346;28;20018;-71
2022/06/09 09:58:46;;;;;;;9.75;4.38;;;;;;;19.02;61.77;100768.97;4973354;28;20042;-72
2022/06/09 10:01:14;;;;;;;8.95;4.18;;;;;;;19.42;60.94;100776.53;4973364;28;20034;-71
2022/06/09 10:09:28;;;;;;;8.17;4.00;;;;;;;19.21;61.70;100780.06;4964553;28;20029;-70
2022/06/09 10:12:01;;;;;;;7.85;3.78;;;;;;;19.16;62.15;100775.28;4964120;28;20013;-72
2022/06/09 10:14:38;;;;;;;5.63;3.53;;;;;;;19.27;61.61;100781.13;4973083;28;20026;-71
2022/06/09 10:17:21;;;;;;;7.32;3.97;;;;;;;19.54;60.10;100780.34;4976535;28;20912;-72
2022/06/09 10:20:07;;;;;;;6.65;3.53;;;;;;;19.52;59.58;100793.09;4975976;28;20050;-71
2022/06/09 10:22:35;;;;;;;7.00;3.67;;;;;;;19.34;60.57;100788.22;4964044;28;20026;-72
2022/06/09 10:25:38;;;;;;;8.38;3.58;;;;;;;19.78;59.81;100785.44;4973074;28;20404;-73
2022/06/09 10:28:23;;;;;;;6.88;3.58;;;;;;;20.78;56.15;100795.88;4922940;28;20415;-73
2022/06/09 10:30:54;;;;;;;6.75;3.28;;;;;;;21.38;55.47;100786.00;4952576;28;20030;-73
2022/06/09 10:33:40;;;;;;;6.43;3.17;;;;;;;21.56;53.96;100785.41;4959865;28;20915;-71
2022/06/09 10:36:18;;;;;;;7.47;3.45;;;;;;;21.65;54.88;100791.41;4973064;28;20071;-71
2022/06/09 10:38:48;;;;;;;6.00;2.80;;;;;;;21.60;52.73;100801.97;4970215;28;20018;-71
2022/06/09 10:41:19;;;;;;;6.55;3.10;;;;;;;21.67;52.10;100788.50;4935979;28;20268;-72
2022/06/09 10:43:57;;;;;;;8.05;2.90;;;;;;;21.29;52.82;100795.31;4955327;28;20043;-71
2022/06/09 10:46:25;;;;;;;3.65;2.70;;;;;;;21.24;53.28;100801.31;4953984;28;20023;-71
2022/06/09 10:55:25;;;;;;;4.68;2.38;;;;;;;21.33;51.33;100836.94;4952996;28;20099;-71
2022/06/09 10:57:59;;;;;;;4.03;2.47;;;;;;;21.03;55.70;100831.13;4961879;28;20337;-71
2022/06/09 11:00:33;;;;;;;2.85;1.83;;;;;;;20.30;56.28;100837.84;4955572;28;20569;-71
2022/06/09 11:03:00;;;;;;;2.20;1.38;;;;;;;19.82;58.78;100830.53;4976987;28;20033;-71
2022/06/09 11:05:45;;;;;;;1.60;1.50;;;;;;;19.27;60.90;100829.44;4978808;28;20133;-71
2022/06/09 11:08:39;;;;;;;8.32;2.42;;;;;;;18.58;66.50;100844.13;4958529;28;20429;-71
2022/06/09 11:11:14;;;;;;;6.72;2.67;;;;;;;18.15;70.93;100853.66;4960454;28;20114;-70
2022/06/09 11:13:45;;;;;;;2.53;1.70;;;;;;;17.83;70.90;100854.78;4978008;28;20720;-71
2022/06/09 11:16:47;;;;;;;3.47;1.63;;;;;;;17.61;72.68;100861.84;4978632;28;20018;-71
2022/06/09 11:19:35;;;;;;;1.80;1.70;;;;;;;17.62;73.55;100860.84;4973793;28;20014;-71
2022/06/09 11:22:09;;;;;;;3.25;1.70;;;;;;;17.62;74.71;100864.34;4977421;28;20149;-70
2022/06/09 11:24:40;;;;;;;2.28;2.00;;;;;;;17.66;77.19;100872.84;4975595;28;20723;-70
2022/06/09 11:27:35;;;;;;;4.70;2.20;;;;;;;17.89;77.82;100861.25;4960816;28;20609;-71
2022/06/09 11:30:22;;;;;;;2.92;2.20;;;;;;;17.98;76.08;100868.25;4949374;28;20025;-70
2022/06/09 11:33:00;;;;;;;4.75;2.20;;;;;;;17.90;76.70;100870.97;4977467;28;20023;-71
2022/06/09 11:36:11;;;;;;;3.35;2.08;;;;;;;17.62;78.46;100864.34;4977592;28;20558;-70
2022/06/09 11:39:14;;;;;;;3.15;2.42;;;;;;;17.46;79.34;100878.69;4930712;28;20044;-71
2022/06/09 11:41:44;;;;;;;2.80;2.15;;;;;;;17.24;79.24;100868.81;4972012;28;20034;-71
2022/06/09 11:44:22;;;;;;;4.82;2.50;;;;;;;17.28;80.04;100870.13;4962709;28;20082;-70
2022/06/09 11:46:49;;;;;;;7.68;2.40;;;;;;;17.19;80.65;100873.84;4979433;28;20655;-71
2022/06/09 11:49:38;;;;;;;2.85;2.65;;;;;;;17.16;80.41;100877.72;4947748;28;20181;-70
2022/06/09 11:52:13;;;;;;;4.50;2.60;;;;;;;17.38;81.17;100865.38;4942316;28;20030;-70
2022/06/09 11:55:00;;;;;;;5.28;3.10;;;;;;;17.47;81.74;100863.44;4943615;28;20085;-70